Time;durP1;ratioP1;P1;durP2;ratioP2;P2;SDS_P1;SDS_P2;PMS_P1;PMS_P2;Temp;Humidity;BMP_temperature;BMP_pressure;BME280_temperature;BME280_humidity;BME280_pressure;Samples;Min_cycle;Max_cycle;Signal;HPM_P1;HPM_P2
2021/06/19 00:04:04;;;;;;;3.90;3.05;;;;;;;23.21;52.55;99839.78;10570162;28;20481;-71
2021/06/19 00:09:06;;;;;;;3.63;3.33;;;;;;;23.14;52.94;99836.75;10588210;28;20040;-70
2021/06/19 00:14:08;;;;;;;3.55;3.25;;;;;;;23.11;52.98;99826.31;10586908;28;20512;-70
2021/06/19 00:19:10;;;;;;;6.35;3.42;;;;;;;22.75;54.66;99829.44;10587183;28;20047;-71
2021/06/19 00:24:18;;;;;;;3.70;3.40;;;;;;;22.63;54.52;99842.94;10587337;28;20039;-70
2021/06/19 00:29:20;;;;;;;3.40;3.10;;;;;;;22.56;55.05;99852.44;10586428;28;20126;-70
2021/06/19 00:34:21;;;;;;;3.60;3.30;;;;;;;22.52;54.74;99839.44;10586402;28;20054;-69
2021/06/19 00:39:23;;;;;;;3.72;3.50;;;;;;;22.37;55.42;99842.44;10566614;28;20052;-69
2021/06/19 00:44:25;;;;;;;4.47;3.22;;;;;;;22.53;54.62;99836.63;10585690;28;20071;-70
2021/06/19 00:49:28;;;;;;;4.80;3.53;;;;;;;22.50;55.00;99834.22;10585336;28;20059;-70
2021/06/19 00:54:29;;;;;;;3.45;3.17;;;;;;;22.44;55.11;99834.72;10585353;28;20043;-70
2021/06/19 00:59:31;;;;;;;3.25;3.05;;;;;;;22.27;55.39;99835.28;10585222;28;20046;-70
2021/06/19 01:04:33;;;;;;;5.38;3.25;;;;;;;22.21;55.90;99838.50;10586734;28;20036;-70
2021/06/19 01:09:35;;;;;;;4.90;3.10;;;;;;;22.15;55.55;99846.06;10585047;28;20052;-70
2021/06/19 01:14:37;;;;;;;4.30;3.63;;;;;;;22.13;55.43;99844.47;10566356;28;20084;-70
2021/06/19 01:19:39;;;;;;;4.55;3.85;;;;;;;22.15;55.74;99835.34;10587373;28;20120;-70
2021/06/19 01:24:41;;;;;;;3.05;2.85;;;;;;;22.31;54.98;99824.22;10586980;28;20475;-70
2021/06/19 01:29:43;;;;;;;3.28;3.08;;;;;;;22.25;54.82;99827.41;10570831;28;20056;-70
2021/06/19 01:34:45;;;;;;;3.13;2.83;;;;;;;22.32;54.25;99820.56;10586585;28;20137;-70
2021/06/19 01:39:47;;;;;;;3.50;2.83;;;;;;;22.28;54.29;99827.16;10586644;28;20104;-70
2021/06/19 01:44:48;;;;;;;3.40;3.10;;;;;;;22.37;53.61;99817.50;10586143;28;20042;-70
2021/06/19 01:49:50;;;;;;;3.22;2.92;;;;;;;22.37;53.68;99817.50;10587094;28;20052;-69
2021/06/19 01:54:52;;;;;;;3.08;2.78;;;;;;;22.54;53.19;99810.72;10570443;28;20058;-69
2021/06/19 02:00:03;;;;;;;3.17;2.85;;;;;;;22.45;53.08;99814.19;10589445;28;20048;-69
2021/06/19 02:05:10;;;;;;;3.33;3.03;;;;;;;22.60;52.91;99815.53;10585917;28;20047;-69
2021/06/19 02:10:13;;;;;;;4.00;2.38;;;;;;;22.40;53.20;99814.53;10585315;28;20069;-69
2021/06/19 02:15:16;;;;;;;4.78;2.83;;;;;;;22.54;52.97;99818.75;10567468;28;20063;-70
2021/06/19 02:20:19;;;;;;;3.15;2.75;;;;;;;22.38;53.17;99816.50;10584902;28;20044;-70
2021/06/19 02:25:24;;;;;;;8.30;3.58;;;;;;;22.51;52.80;99819.84;10584554;28;20043;-69
2021/06/19 02:30:29;;;;;;;2.60;2.40;;;;;;;22.57;52.25;99815.78;10583188;28;20046;-69
2021/06/19 02:35:34;;;;;;;3.88;3.35;;;;;;;22.53;52.93;99825.06;10584880;28;20122;-69
2021/06/19 02:40:38;;;;;;;4.28;3.05;;;;;;;22.50;52.63;99823.53;10584583;28;20366;-69
2021/06/19 02:45:40;;;;;;;3.22;2.83;;;;;;;22.28;53.40;99812.91;10581225;28;20127;-69
2021/06/19 02:50:43;;;;;;;2.85;2.55;;;;;;;22.32;53.39;99822.41;10580774;28;20101;-69
2021/06/19 02:55:45;;;;;;;3.22;2.97;;;;;;;22.40;53.03;99820.78;10562668;28;20036;-69
2021/06/19 03:00:46;;;;;;;4.45;2.80;;;;;;;22.51;52.62;99822.53;10585602;28;20052;-70
2021/06/19 03:05:48;;;;;;;3.22;2.92;;;;;;;22.45;52.78;99824.91;10554706;28;20044;-69
2021/06/19 03:10:50;;;;;;;2.90;2.60;;;;;;;22.37;53.17;99825.53;10589144;28;20039;-70
2021/06/19 03:15:51;;;;;;;3.53;3.00;;;;;;;22.35;53.14;99822.13;10438154;23;20053;-72
2021/06/19 03:20:53;;;;;;;3.67;2.95;;;;;;;22.41;53.72;99822.47;10399198;28;20116;-73
2021/06/19 03:25:55;;;;;;;2.63;2.42;;;;;;;22.20;53.94;99831.44;10385177;28;20073;-72
2021/06/19 03:30:57;;;;;;;3.20;2.90;;;;;;;22.47;53.10;99836.31;10367371;28;20056;-73
2021/06/19 03:35:58;;;;;;;4.22;2.83;;;;;;;22.48;53.68;99828.13;10382618;28;20057;-72
2021/06/19 03:41:00;;;;;;;4.05;3.15;;;;;;;22.55;52.80;99828.50;10383771;28;20579;-73
2021/06/19 03:46:02;;;;;;;3.03;2.75;;;;;;;22.39;53.80;99839.63;10383099;28;20048;-73
2021/06/19 03:51:03;;;;;;;3.85;2.88;;;;;;;22.60;52.91;99843.19;10398070;28;20507;-73
2021/06/19 03:56:05;;;;;;;3.72;3.40;;;;;;;22.59;53.24;99846.00;10383325;28;20046;-72
2021/06/19 04:01:07;;;;;;;3.13;2.80;;;;;;;22.48;54.10;99868.31;10383420;28;20053;-74
2021/06/19 04:06:08;;;;;;;3.90;3.13;;;;;;;22.48;53.67;99848.72;10383563;28;20038;-73
2021/06/19 04:11:13;;;;;;;3.80;3.40;;;;;;;22.59;54.00;99846.84;10382193;28;20062;-73
2021/06/19 04:16:15;;;;;;;4.15;2.92;;;;;;;22.74;53.18;99851.88;10381545;28;20128;-73
2021/06/19 04:21:17;;;;;;;5.25;3.22;;;;;;;22.81;54.49;99847.69;10380538;28;20427;-72
2021/06/19 04:26:20;;;;;;;4.35;3.95;;;;;;;22.82;53.19;99844.03;10383322;28;20481;-72
2021/06/19 04:31:21;;;;;;;3.67;3.00;;;;;;;22.81;53.55;99845.03;10382406;28;20117;-72
2021/06/19 04:36:23;;;;;;;6.85;3.40;;;;;;;22.91;53.29;99837.91;10380197;28;20050;-73
2021/06/19 04:41:36;;;;;;;2.92;2.63;;;;;;;23.23;52.12;99834.25;10382003;28;20046;-73
2021/06/19 04:46:37;;;;;;;3.22;2.97;;;;;;;23.38;51.97;99840.97;10382109;28;20080;-73
2021/06/19 04:51:40;;;;;;;5.20;3.38;;;;;;;23.67;51.96;99841.09;10380440;28;20117;-73
2021/06/19 04:56:42;;;;;;;3.92;3.40;;;;;;;23.75;50.96;99843.09;10396457;28;20046;-73
2021/06/19 05:01:43;;;;;;;3.67;3.33;;;;;;;23.98;51.35;99846.38;10396196;28;20056;-72
2021/06/19 05:06:45;;;;;;;3.40;3.10;;;;;;;24.11;50.46;99857.69;10381185;28;20038;-73
2021/06/19 05:11:47;;;;;;;3.13;2.83;;;;;;;24.44;50.32;99863.69;10380058;28;20061;-72
2021/06/19 05:16:49;;;;;;;7.03;3.20;;;;;;;24.81;49.38;99853.06;10380798;28;20045;-73
2021/06/19 05:21:50;;;;;;;4.00;3.25;;;;;;;25.01;49.27;99849.31;10379963;28;20045;-72
2021/06/19 05:26:52;;;;;;;3.50;2.90;;;;;;;25.32;48.55;99846.41;10380049;28;20038;-73
2021/06/19 05:31:54;;;;;;;3.65;3.33;;;;;;;25.64;48.51;99859.44;10363467;28;20054;-72
2021/06/19 05:36:55;;;;;;;3.10;2.85;;;;;;;25.79;48.96;99852.59;10394602;28;20045;-73
2021/06/19 05:41:57;;;;;;;4.25;2.90;;;;;;;26.28;47.72;99847.72;10380849;28;20045;-72
2021/06/19 05:46:59;;;;;;;3.20;2.90;;;;;;;26.70;46.60;99849.78;10378692;28;20041;-71
2021/06/19 05:52:10;;;;;;;2.95;2.45;;;;;;;26.74;47.10;99845.78;10380276;28;20092;-72
2021/06/19 05:57:12;;;;;;;2.80;2.67;;;;;;;27.27;46.04;99854.72;10380444;28;20061;-72
2021/06/19 06:02:14;;;;;;;3.42;3.17;;;;;;;27.81;45.06;99856.19;10395196;28;20153;-71
2021/06/19 06:07:15;;;;;;;3.88;2.75;;;;;;;28.50;43.38;99854.13;10378334;28;20045;-74
2021/06/19 06:12:17;;;;;;;2.88;2.60;;;;;;;28.53;44.11;99863.78;10379645;28;20092;-72
2021/06/19 06:17:19;;;;;;;3.92;3.05;;;;;;;28.82;43.54;99871.34;10380579;28;20046;-72
2021/06/19 06:22:20;;;;;;;3.20;2.95;;;;;;;29.44;42.21;99871.63;10379473;28;20048;-71
2021/06/19 06:27:22;;;;;;;2.90;2.70;;;;;;;29.07;44.42;99867.66;10362723;28;20041;-73
2021/06/19 06:32:24;;;;;;;2.88;2.58;;;;;;;28.56;43.52;99875.09;10380874;28;20042;-73
2021/06/19 06:37:26;;;;;;;3.88;3.00;;;;;;;29.15;43.80;99875.75;10393810;28;20050;-71
2021/06/19 06:42:27;;;;;;;4.72;2.80;;;;;;;29.47;42.96;99867.72;10377835;28;20049;-72
2021/06/19 06:47:29;;;;;;;3.83;2.97;;;;;;;29.58;42.39;99873.63;10375569;28;20046;-73
2021/06/19 06:52:32;;;;;;;2.70;2.50;;;;;;;30.13;41.24;99874.53;10359033;28;20050;-73
2021/06/19 06:57:34;;;;;;;4.15;3.10;;;;;;;30.00;43.44;99876.97;10376571;28;20050;-72
2021/06/19 07:02:40;;;;;;;3.88;2.97;;;;;;;30.17;40.59;99877.75;10379849;28;20046;-73
2021/06/19 07:07:42;;;;;;;2.28;2.17;;;;;;;30.47;39.84;99882.31;10392283;28;20104;-73
2021/06/19 07:12:45;;;;;;;4.20;2.58;;;;;;;30.44;41.43;99879.94;10359938;28;20602;-73
2021/06/19 07:17:48;;;;;;;3.03;2.72;;;;;;;30.27;42.30;99881.91;10375855;28;20046;-73
2021/06/19 07:22:50;;;;;;;4.25;3.13;;;;;;;30.54;41.04;99869.69;10375459;28;20050;-73
2021/06/19 07:27:54;;;;;;;4.80;3.22;;;;;;;30.53;41.65;99870.72;10360726;28;20492;-74
2021/06/19 07:32:56;;;;;;;2.90;2.23;;;;;;;31.00;41.14;99866.94;10391786;28;20049;-74
2021/06/19 07:37:57;;;;;;;2.80;2.60;;;;;;;31.08;41.68;99866.03;10377521;28;20300;-74
2021/06/19 07:43:00;;;;;;;3.25;2.97;;;;;;;31.37;40.46;99865.22;10375553;28;20053;-74
2021/06/19 07:48:02;;;;;;;4.07;2.67;;;;;;;31.56;40.28;99869.22;10382909;28;20044;-74
2021/06/19 07:53:03;;;;;;;3.28;2.65;;;;;;;31.54;39.87;99861.28;10384161;28;20116;-74
2021/06/19 07:58:05;;;;;;;3.58;2.90;;;;;;;31.34;40.06;99869.16;10382431;28;20046;-74
2021/06/19 08:03:07;;;;;;;3.25;2.92;;;;;;;31.85;40.44;99873.81;10382637;28;20054;-73
2021/06/19 08:08:08;;;;;;;4.30;2.63;;;;;;;31.78;40.04;99872.84;10349471;28;20045;-74
2021/06/19 08:13:10;;;;;;;3.08;2.75;;;;;;;31.75;40.52;99870.53;10384698;28;20574;-73
2021/06/19 08:18:12;;;;;;;4.28;3.42;;;;;;;32.18;40.38;99868.75;10383472;28;20045;-74
2021/06/19 08:23:13;;;;;;;3.28;2.65;;;;;;;32.45;38.84;99875.38;10398560;28;20049;-73
2021/06/19 08:28:15;;;;;;;5.15;3.08;;;;;;;32.69;37.99;99856.94;10384073;28;20045;-73
2021/06/19 08:33:17;;;;;;;3.80;3.13;;;;;;;33.23;37.91;99861.75;10383723;28;20492;-73
2021/06/19 08:38:18;;;;;;;3.13;2.83;;;;;;;33.38;37.54;99849.72;10398213;28;20050;-73
2021/06/19 08:43:20;;;;;;;3.45;2.80;;;;;;;33.55;36.78;99852.97;10397350;28;20069;-73
2021/06/19 08:48:22;;;;;;;5.30;2.92;;;;;;;33.93;37.03;99855.22;10363688;28;20068;-73
2021/06/19 08:53:24;;;;;;;3.03;2.72;;;;;;;34.64;35.22;99849.31;10380680;28;20073;-74
2021/06/19 08:58:45;;;;;;;3.30;2.78;;;;;;;35.10;35.90;99846.56;10378293;28;20049;-74
2021/06/19 09:03:47;;;;;;;3.00;2.80;;;;;;;35.28;35.19;99843.16;10380782;28;20461;-74
2021/06/19 09:09:05;;;;;;;3.30;2.72;;;;;;;35.58;36.11;99849.00;10379624;28;20041;-73
2021/06/19 09:14:17;;;;;;;3.55;3.25;;;;;;;34.77;35.78;99841.13;10427655;22;20048;-68
2021/06/19 09:19:36;;;;;;;3.55;2.97;;;;;;;34.11;36.59;99839.13;10510096;28;20044;-69
2021/06/19 09:24:49;;;;;;;2.92;2.72;;;;;;;35.05;35.30;99829.13;10542087;28;20044;-69
2021/06/19 09:30:17;;;;;;;4.00;3.03;;;;;;;35.60;34.51;99835.13;10542520;28;20081;-69
2021/06/19 09:35:32;;;;;;;3.30;3.08;;;;;;;36.52;34.74;99821.97;10541640;28;20131;-69
2021/06/19 09:40:44;;;;;;;4.45;2.40;;;;;;;36.22;33.00;99838.19;10541362;28;20508;-70
2021/06/19 09:46:08;;;;;;;2.60;2.35;;;;;;;36.26;31.41;99831.19;10540818;28;20044;-69
2021/06/19 09:51:21;;;;;;;3.15;2.25;;;;;;;36.51;30.91;99829.34;10541270;28;20036;-69
2021/06/19 09:56:26;;;;;;;2.50;2.30;;;;;;;35.69;31.06;99828.34;10541136;28;20059;-69
2021/06/19 10:01:37;;;;;;;2.30;2.10;;;;;;;35.75;29.54;99826.63;10522820;28;20060;-69
2021/06/19 10:06:39;;;;;;;3.53;2.45;;;;;;;35.76;31.55;99837.34;10540503;28;20126;-69
2021/06/19 10:11:44;;;;;;;2.70;2.45;;;;;;;35.52;31.97;99829.88;10540541;28;20074;-69
2021/06/19 10:16:52;;;;;;;3.15;2.72;;;;;;;35.26;31.59;99819.84;10522291;28;20139;-69
2021/06/19 10:21:56;;;;;;;2.80;2.60;;;;;;;35.23;32.23;99820.28;10538929;28;20044;-71
2021/06/19 10:26:57;;;;;;;3.05;2.70;;;;;;;35.88;33.33;99826.56;10539640;28;20505;-70
2021/06/19 10:31:59;;;;;;;2.45;2.25;;;;;;;36.16;33.26;99823.47;10540669;28;20073;-69
2021/06/19 10:37:03;;;;;;;5.20;2.90;;;;;;;36.60;30.60;99810.75;10540869;28;20055;-69
2021/06/19 10:42:21;;;;;;;6.47;2.65;;;;;;;35.75;33.01;99830.19;10539981;28;20040;-70
2021/06/19 10:47:26;;;;;;;3.85;2.63;;;;;;;36.08;32.00;99824.59;10540171;28;20043;-70
2021/06/19 10:52:30;;;;;;;3.53;3.15;;;;;;;36.16;32.76;99812.53;10540673;28;20516;-70
2021/06/19 10:58:00;;;;;;;2.75;2.55;;;;;;;36.92;31.98;99817.00;10540993;28;20044;-71
2021/06/19 11:03:05;;;;;;;3.05;2.75;;;;;;;36.30;32.61;99814.13;10540577;28;20121;-70
2021/06/19 11:08:09;;;;;;;3.25;2.92;;;;;;;35.72;33.85;99819.69;10526052;28;20050;-69
2021/06/19 11:13:33;;;;;;;3.60;2.50;;;;;;;35.79;32.80;99814.22;10541797;28;20044;-71
2021/06/19 11:18:48;;;;;;;3.97;2.70;;;;;;;36.33;30.74;99807.34;10540391;28;20040;-70
2021/06/19 11:24:02;;;;;;;;;;;;;;;36.41;29.77;99798.03;10548340;28;20131;-70
2021/06/19 11:29:38;;;;;;;2.65;2.45;;;;;;;36.49;31.36;99792.31;10546956;28;19924;-70
2021/06/19 11:34:41;;;;;;;2.45;2.25;;;;;;;36.41;31.40;99790.66;10549044;28;20060;-70
2021/06/19 11:39:43;;;;;;;2.70;2.50;;;;;;;35.85;33.15;99781.34;10551019;28;20108;-69
2021/06/19 11:44:47;;;;;;;2.50;2.30;;;;;;;36.21;31.53;99776.28;10549463;28;20588;-71
2021/06/19 11:49:50;;;;;;;3.83;3.07;;;;;;;36.32;32.82;99768.22;10538435;28;20463;-70
2021/06/19 11:54:54;;;;;;;3.08;2.72;;;;;;;36.67;31.88;99775.94;10503701;28;20040;-70
2021/06/19 12:00:11;;;;;;;2.35;2.00;;;;;;;36.00;29.82;99778.34;10521755;28;20088;-70
2021/06/19 12:05:17;;;;;;;2.25;2.08;;;;;;;36.15;32.00;99777.19;10504987;28;20039;-71
2021/06/19 12:10:26;;;;;;;3.42;2.30;;;;;;;36.19;30.74;99767.47;10504769;28;20123;-71
2021/06/19 12:15:28;;;;;;;3.78;2.55;;;;;;;36.44;30.88;99762.88;10503235;28;20040;-71
2021/06/19 12:20:30;;;;;;;3.03;2.40;;;;;;;36.28;33.58;99768.88;10501731;28;20049;-69
2021/06/19 12:25:34;;;;;;;2.50;2.30;;;;;;;35.98;32.69;99766.78;10502863;28;20044;-70
2021/06/19 12:30:35;;;;;;;3.10;2.53;;;;;;;36.07;32.41;99751.75;10503909;28;20090;-70
2021/06/19 12:35:37;;;;;;;3.05;2.75;;;;;;;36.04;32.50;99745.91;10502707;28;20047;-70
2021/06/19 12:40:39;;;;;;;3.90;2.65;;;;;;;36.15;30.75;99756.13;10503542;28;20078;-70
2021/06/19 12:45:44;;;;;;;2.28;2.08;;;;;;;36.58;28.58;99739.78;10503425;28;20036;-70
2021/06/19 12:50:47;;;;;;;3.40;2.40;;;;;;;35.93;31.35;99732.91;10503758;28;20040;-70
2021/06/19 12:56:00;;;;;;;2.50;2.30;;;;;;;36.29;31.18;99726.75;10502262;28;20390;-70
2021/06/19 13:01:13;;;;;;;5.30;2.45;;;;;;;36.37;30.74;99730.06;10500064;28;20135;-70
2021/06/19 13:06:33;;;;;;;3.53;2.33;;;;;;;36.74;30.57;99718.34;10502291;28;20464;-69
2021/06/19 13:11:40;;;;;;;3.35;2.20;;;;;;;36.17;30.97;99721.19;10500919;28;20048;-71
2021/06/19 13:16:42;;;;;;;2.20;2.10;;;;;;;36.13;30.26;99720.78;10501204;28;20424;-70
2021/06/19 13:21:46;;;;;;;2.42;2.25;;;;;;;36.22;30.59;99707.69;10501325;28;20123;-70
2021/06/19 13:26:49;;;;;;;2.58;2.38;;;;;;;36.19;32.18;99712.75;10500485;28;20044;-69
2021/06/19 13:31:50;;;;;;;3.03;2.75;;;;;;;36.00;32.73;99707.22;10499358;28;20043;-69
2021/06/19 13:37:00;;;;;;;3.97;2.40;;;;;;;35.98;32.74;99703.84;10501424;28;20048;-68
2021/06/19 13:42:05;;;;;;;3.25;2.95;;;;;;;35.89;32.23;99707.91;10499998;28;20037;-69
2021/06/19 13:47:11;;;;;;;2.65;2.45;;;;;;;35.84;32.41;99700.34;10500478;28;20401;-69
2021/06/19 13:52:14;;;;;;;3.20;2.42;;;;;;;35.75;32.42;99698.94;10499704;28;20045;-69
2021/06/19 13:57:19;;;;;;;2.50;2.33;;;;;;;36.22;32.03;99701.38;10499736;28;20047;-69
2021/06/19 14:02:21;;;;;;;3.00;2.60;;;;;;;35.99;32.25;99691.00;10498851;28;20413;-68
2021/06/19 14:07:24;;;;;;;4.28;3.22;;;;;;;35.81;32.93;99689.00;10499462;28;20036;-70
2021/06/19 14:12:26;;;;;;;3.13;2.88;;;;;;;35.58;33.96;99687.69;10499075;28;20078;-69
2021/06/19 14:17:28;;;;;;;5.65;2.92;;;;;;;35.68;33.05;99678.16;10498634;28;20406;-69
2021/06/19 14:22:31;;;;;;;4.15;3.00;;;;;;;35.47;33.77;99674.75;10498885;28;20055;-69
2021/06/19 14:27:32;;;;;;;2.80;2.30;;;;;;;35.84;31.32;99664.81;10498723;28;20102;-69
2021/06/19 14:32:35;;;;;;;2.97;2.72;;;;;;;35.89;33.02;99666.88;10498407;28;20044;-69
2021/06/19 14:37:36;;;;;;;4.38;2.80;;;;;;;35.86;33.39;99651.75;10498440;28;20409;-69
2021/06/19 14:42:38;;;;;;;3.67;3.33;;;;;;;35.55;33.55;99654.50;10498928;28;20048;-69
2021/06/19 14:47:41;;;;;;;3.13;2.83;;;;;;;35.93;32.52;99642.66;10500157;28;20040;-69
2021/06/19 14:52:44;;;;;;;2.80;2.53;;;;;;;35.55;32.09;99641.69;10497878;28;20052;-69
2021/06/19 14:57:48;;;;;;;2.38;2.20;;;;;;;35.87;31.36;99641.66;10504185;28;20040;-69
2021/06/19 15:02:49;;;;;;;3.28;2.03;;;;;;;36.32;29.44;99638.75;10506624;28;20059;-69
2021/06/19 15:07:51;;;;;;;3.60;2.22;;;;;;;36.30;31.43;99646.31;10506045;28;20055;-69
2021/06/19 15:12:53;;;;;;;2.28;2.08;;;;;;;36.54;30.63;99652.88;10506450;28;20050;-70
2021/06/19 15:17:55;;;;;;;2.28;1.92;;;;;;;36.77;28.58;99657.66;10589261;22;20096;-75
2021/06/19 15:22:58;;;;;;;2.40;2.10;;;;;;;36.95;28.02;99652.19;10590806;28;20043;-75
2021/06/19 15:28:00;;;;;;;2.20;2.00;;;;;;;36.86;28.84;99661.75;10592331;28;20054;-75
2021/06/19 15:33:02;;;;;;;5.88;2.22;;;;;;;37.36;29.99;99653.31;10571652;28;20054;-75
2021/06/19 15:38:04;;;;;;;2.40;2.20;;;;;;;37.04;28.65;99649.97;10589654;28;20040;-74
2021/06/19 15:43:05;;;;;;;2.60;2.20;;;;;;;37.39;28.10;99643.84;10587974;28;20047;-74
2021/06/19 15:48:07;;;;;;;3.47;1.90;;;;;;;37.41;28.55;99645.28;10572462;28;20135;-74
2021/06/19 15:53:09;;;;;;;2.20;2.10;;;;;;;37.04;29.06;99648.06;10591014;28;20052;-75
2021/06/19 15:58:11;;;;;;;3.25;2.83;;;;;;;36.20;30.85;99635.06;10571898;28;20062;-75
2021/06/19 16:03:13;;;;;;;3.10;2.80;;;;;;;36.38;30.27;99626.88;10589706;28;20051;-74
2021/06/19 16:08:15;;;;;;;3.75;2.60;;;;;;;36.41;29.57;99634.66;10589131;28;20067;-73
2021/06/19 16:13:16;;;;;;;2.60;2.40;;;;;;;36.13;30.07;99633.25;10591451;28;20055;-74
2021/06/19 16:18:18;;;;;;;3.20;2.90;;;;;;;36.02;30.40;99636.69;10590077;28;20504;-74
2021/06/19 16:23:19;;;;;;;4.22;2.80;;;;;;;35.56;31.00;99637.06;10571055;28;20051;-74
2021/06/19 16:28:24;;;;;;;3.65;2.13;;;;;;;35.61;30.87;99642.69;10588915;28;20096;-74
2021/06/19 16:33:26;;;;;;;4.78;2.58;;;;;;;34.99;32.91;99636.09;10589421;28;20043;-74
2021/06/19 16:38:28;;;;;;;6.10;2.80;;;;;;;34.64;34.71;99629.03;10589573;28;20094;-75
2021/06/19 16:43:30;;;;;;;3.10;2.90;;;;;;;34.68;35.07;99617.69;10589269;28;20058;-75
2021/06/19 16:48:31;;;;;;;6.25;3.30;;;;;;;34.12;36.20;99613.59;10570897;28;20036;-75
2021/06/19 16:53:35;;;;;;;7.70;3.58;;;;;;;33.93;36.69;99609.81;10588204;28;20054;-75
2021/06/19 16:58:36;;;;;;;3.70;2.95;;;;;;;33.80;36.61;99607.09;10591056;28;20097;-74
2021/06/19 17:03:49;;;;;;;3.80;3.10;;;;;;;33.57;38.10;99599.34;10569303;28;20134;-74
2021/06/19 17:08:51;;;;;;;4.30;3.40;;;;;;;33.40;38.03;99609.75;10586456;28;20055;-75
2021/06/19 17:13:52;;;;;;;6.40;3.50;;;;;;;33.40;38.38;99620.66;10585980;28;20035;-75
2021/06/19 17:18:54;;;;;;;3.00;2.78;;;;;;;33.31;37.76;99630.91;10587229;28;20040;-74
2021/06/19 17:23:55;;;;;;;4.38;3.15;;;;;;;33.16;38.22;99624.78;10586169;28;20119;-74
2021/06/19 17:29:00;;;;;;;3.70;3.28;;;;;;;32.85;39.22;99617.09;10553095;28;20040;-73
2021/06/19 17:34:07;;;;;;;4.70;3.33;;;;;;;32.57;39.97;99623.47;10568608;28;20415;-75
2021/06/19 17:39:09;;;;;;;3.63;3.33;;;;;;;32.44;41.07;99641.59;10583846;28;20089;-73
2021/06/19 17:44:10;;;;;;;3.95;3.65;;;;;;;32.22;40.71;99646.22;10586418;28;20450;-74
2021/06/19 17:49:12;;;;;;;5.95;4.85;;;;;;;32.25;40.79;99648.56;10583302;28;20044;-73
2021/06/19 17:54:13;;;;;;;4.28;3.92;;;;;;;32.09;41.56;99653.22;10584447;28;20047;-74
2021/06/19 17:59:15;;;;;;;7.70;4.35;;;;;;;32.12;42.46;99652.84;10548383;28;20043;-75
2021/06/19 18:04:17;;;;;;;5.47;5.00;;;;;;;31.79;43.33;99654.44;10569520;28;20055;-75
2021/06/19 18:09:18;;;;;;;6.10;4.78;;;;;;;31.63;42.71;99650.94;10583907;28;20082;-75
2021/06/19 18:14:21;;;;;;;7.18;4.70;;;;;;;31.31;42.00;99652.28;10583689;28;20081;-74
2021/06/19 18:19:22;;;;;;;4.40;4.10;;;;;;;31.29;43.38;99645.34;10532032;28;20086;-75
2021/06/19 18:24:40;;;;;;;5.82;4.28;;;;;;;31.09;44.27;99650.53;10570002;28;20043;-74
2021/06/19 18:29:42;;;;;;;6.20;4.85;;;;;;;30.92;44.49;99644.47;10567469;28;20051;-74
2021/06/19 18:34:44;;;;;;;5.00;4.60;;;;;;;30.82;44.50;99649.38;10582624;28;20043;-74
2021/06/19 18:39:46;;;;;;;5.50;4.97;;;;;;;30.90;43.60;99643.81;10564903;28;20044;-76
2021/06/19 18:44:48;;;;;;;5.55;5.07;;;;;;;30.74;45.19;99660.31;10582652;28;20047;-74
2021/06/19 18:49:53;;;;;;;5.63;5.13;;;;;;;30.72;44.24;99662.34;10586170;28;20038;-72
2021/06/19 18:54:54;;;;;;;;;;;;;;;30.49;44.79;99657.84;10582562;28;20149;-75
2021/06/19 18:59:56;;;;;;;7.25;5.10;;;;;;;30.50;44.99;99654.09;10582249;28;20335;-75
2021/06/19 19:05:00;;;;;;;8.25;5.18;;;;;;;30.43;44.66;99666.72;10585759;28;20035;-76
2021/06/19 19:10:03;;;;;;;4.90;4.57;;;;;;;30.50;45.06;99666.81;10586422;28;20091;-75
2021/06/19 19:15:08;;;;;;;7.00;5.38;;;;;;;29.97;47.00;99669.53;10582607;28;20128;-74
2021/06/19 19:20:15;;;;;;;5.85;5.13;;;;;;;29.60;47.85;99665.72;10579953;28;20051;-75
2021/06/19 19:25:18;;;;;;;5.40;4.90;;;;;;;29.61;47.65;99658.44;10581415;28;20047;-75
2021/06/19 19:30:22;;;;;;;5.32;4.85;;;;;;;29.31;49.67;99663.72;10585048;28;20047;-75
2021/06/19 19:35:24;;;;;;;6.40;4.80;;;;;;;29.32;48.77;99659.97;10569586;28;20425;-76
2021/06/19 19:40:26;;;;;;;4.95;4.65;;;;;;;29.28;49.30;99671.34;10586095;28;20051;-75
2021/06/19 19:45:28;;;;;;;5.85;5.22;;;;;;;28.86;50.74;99664.41;10590203;28;20044;-75
2021/06/19 19:50:30;;;;;;;6.25;5.72;;;;;;;28.54;51.29;99655.38;10590121;28;20116;-75
2021/06/19 19:55:32;;;;;;;6.32;5.63;;;;;;;28.63;50.48;99654.34;10597051;28;20040;-76
2021/06/19 20:00:34;;;;;;;6.93;6.13;;;;;;;28.30;52.09;99650.88;10590592;28;20060;-76
2021/06/19 20:05:36;;;;;;;6.28;5.82;;;;;;;28.34;51.47;99641.41;10594228;28;20503;-75
2021/06/19 20:10:38;;;;;;;7.45;6.65;;;;;;;28.48;51.43;99633.63;10573241;28;20176;-75
2021/06/19 20:15:40;;;;;;;7.78;7.10;;;;;;;28.44;51.46;99643.94;10592756;28;20051;-76
2021/06/19 20:20:42;;;;;;;10.95;9.90;;;;;;;28.49;51.46;99646.13;10596326;28;20032;-76
2021/06/19 20:25:44;;;;;;;8.98;8.32;;;;;;;28.06;52.50;99648.19;10591150;28;20048;-75
2021/06/19 20:30:46;;;;;;;8.27;7.68;;;;;;;27.81;53.13;99650.94;10590019;28;20044;-75
2021/06/19 20:35:54;;;;;;;9.13;8.52;;;;;;;27.75;53.85;99656.13;10571550;28;20066;-75
2021/06/19 20:40:57;;;;;;;8.73;7.97;;;;;;;27.70;53.61;99662.00;10594107;28;20489;-75
2021/06/19 20:46:01;;;;;;;8.13;7.53;;;;;;;27.47;54.21;99658.28;10590030;28;20042;-76
2021/06/19 20:51:03;;;;;;;8.05;7.35;;;;;;;27.32;54.59;99655.41;10590679;28;20085;-76
2021/06/19 20:56:05;;;;;;;8.70;7.13;;;;;;;27.20;54.79;99679.16;10588562;28;20039;-74
2021/06/19 21:01:07;;;;;;;8.85;8.20;;;;;;;27.11;55.11;99672.88;10575997;28;20043;-75
2021/06/19 21:06:08;;;;;;;9.02;8.32;;;;;;;27.00;55.29;99678.53;10592583;28;20048;-76
2021/06/19 21:11:13;;;;;;;8.35;7.72;;;;;;;26.92;55.64;99679.38;10572409;28;20039;-75
2021/06/19 21:16:16;;;;;;;8.43;7.80;;;;;;;26.78;55.94;99663.78;10584869;22;20044;-74
2021/06/19 21:21:19;;;;;;;8.82;8.07;;;;;;;26.91;55.72;99664.16;10538144;28;20078;-74
2021/06/19 21:26:20;;;;;;;8.18;7.68;;;;;;;26.85;56.04;99666.69;10554473;28;20488;-74
2021/06/19 21:31:22;;;;;;;8.90;8.05;;;;;;;26.89;55.72;99650.00;10558390;28;20043;-73
2021/06/19 21:36:25;;;;;;;9.50;8.80;;;;;;;26.63;57.00;99652.75;10554988;28;20039;-74
2021/06/19 21:41:38;;;;;;;9.30;8.70;;;;;;;26.67;56.48;99646.03;10552840;28;20465;-73
2021/06/19 21:46:41;;;;;;;9.70;8.43;;;;;;;26.69;56.66;99650.41;10549104;28;20443;-73
2021/06/19 21:51:43;;;;;;;9.85;8.93;;;;;;;26.92;56.67;99656.94;10544468;28;20052;-73
2021/06/19 21:56:44;;;;;;;9.77;9.07;;;;;;;26.66;57.08;99665.09;10545308;28;20047;-73
2021/06/19 22:01:46;;;;;;;9.65;9.02;;;;;;;26.26;58.00;99661.13;10544729;28;20055;-74
2021/06/19 22:06:48;;;;;;;10.18;9.27;;;;;;;26.22;58.15;99658.91;10544881;28;20043;-73
2021/06/19 22:11:49;;;;;;;11.10;10.00;;;;;;;26.11;58.70;99652.75;10542900;28;20050;-74
2021/06/19 22:16:51;;;;;;;8.90;8.30;;;;;;;26.00;58.66;99650.31;10545739;28;20036;-73
2021/06/19 22:21:53;;;;;;;10.50;9.80;;;;;;;26.11;58.21;99658.13;10545992;28;20051;-73
2021/06/19 22:26:54;;;;;;;8.93;8.32;;;;;;;25.69;59.45;99657.94;10544214;28;20044;-73
2021/06/19 22:31:56;;;;;;;9.07;8.25;;;;;;;25.49;60.49;99657.25;10543524;28;20108;-74
2021/06/19 22:36:57;;;;;;;9.63;8.82;;;;;;;25.39;60.49;99645.72;10543830;28;20091;-73
2021/06/19 22:42:04;;;;;;;9.15;8.45;;;;;;;25.73;59.24;99653.13;10527868;28;20049;-74
2021/06/19 22:47:06;;;;;;;8.90;8.38;;;;;;;25.74;59.13;99647.56;10548799;28;20078;-74
2021/06/19 22:52:08;;;;;;;9.52;8.75;;;;;;;25.63;59.15;99642.41;10545702;28;20100;-74
2021/06/19 22:57:09;;;;;;;8.65;8.07;;;;;;;25.28;60.18;99648.63;10546502;28;20096;-73
2021/06/19 23:02:11;;;;;;;9.93;9.02;;;;;;;25.25;60.28;99643.56;10545001;28;20044;-72
2021/06/19 23:07:12;;;;;;;9.57;8.95;;;;;;;25.34;59.69;99632.72;10545746;28;20109;-73
2021/06/19 23:12:14;;;;;;;8.95;8.35;;;;;;;25.24;59.83;99640.03;10544090;28;20052;-73
2021/06/19 23:17:16;;;;;;;8.65;8.15;;;;;;;25.02;60.07;99632.38;10550488;28;20036;-74
2021/06/19 23:22:18;;;;;;;9.25;8.57;;;;;;;24.88;60.33;99628.31;10554284;28;20075;-73
2021/06/19 23:27:20;;;;;;;9.43;8.63;;;;;;;25.09;60.10;99630.78;10551944;28;20420;-74
2021/06/19 23:32:23;;;;;;;8.30;7.80;;;;;;;24.95;60.09;99639.34;10533672;28;20423;-74
2021/06/19 23:37:25;;;;;;;10.13;9.43;;;;;;;24.62;61.18;99631.72;10553576;28;20051;-74